Time;durP1;ratioP1;P1;durP2;ratioP2;P2;SDS_P1;SDS_P2;PMS_P1;PMS_P2;Temp;Humidity;BMP_temperature;BMP_pressure;BME280_temperature;BME280_humidity;BME280_pressure;Samples;Min_cycle;Max_cycle;Signal;HPM_P1;HPM_P2
2023/08/24 00:00:45;;;;;;;;;;;15.80;99.90;;;;;;5022596;28;19943;-78
2023/08/24 00:03:11;;;;;;;;;;;15.80;99.90;;;;;;5038541;28;19987;-78
2023/08/24 00:05:37;;;;;;;;;;;15.80;99.90;;;;;;5022767;28;20281;-78
2023/08/24 00:08:09;;;;;;;;;;;15.70;99.90;;;;;;5018654;28;19972;-78
2023/08/24 00:10:35;;;;;;;;;;;15.80;99.90;;;;;;5001743;28;19933;-78
2023/08/24 00:13:01;;;;;;;;;;;15.70;99.90;;;;;;5035654;28;19971;-79
2023/08/24 00:15:27;;;;;;;;;;;15.70;99.90;;;;;;5042020;28;19952;-78
2023/08/24 00:17:52;;;;;;;;;;;15.60;99.90;;;;;;5035114;28;20408;-78
2023/08/24 00:20:19;;;;;;;;;;;15.50;99.90;;;;;;5037661;28;19953;-78
2023/08/24 00:22:45;;;;;;;;;;;15.40;99.90;;;;;;5034341;28;19936;-79
2023/08/24 00:25:11;;;;;;;;;;;15.40;99.90;;;;;;5019312;28;19925;-78
2023/08/24 00:27:36;;;;;;;;;;;15.30;99.90;;;;;;5034438;28;19987;-78
2023/08/24 00:30:06;;;;;;;;;;;15.30;99.90;;;;;;5034816;28;20211;-78
2023/08/24 00:32:34;;;;;;;;;;;15.20;99.90;;;;;;5054414;28;19926;-78
2023/08/24 00:35:00;;;;;;;;;;;15.30;99.90;;;;;;5018025;28;19927;-78
2023/08/24 00:37:25;;;;;;;;;;;15.30;99.90;;;;;;5001224;28;20011;-78
2023/08/24 00:39:51;;;;;;;;;;;15.30;99.90;;;;;;5032833;28;19972;-79
2023/08/24 00:42:16;;;;;;;;;;;15.30;99.90;;;;;;5015354;28;20021;-79
2023/08/24 00:44:43;;;;;;;;;;;15.30;99.90;;;;;;5040461;28;19925;-78
2023/08/24 00:47:08;;;;;;;;;;;15.30;99.90;;;;;;5024837;28;20017;-78
2023/08/24 00:49:34;;;;;;;;;;;15.30;99.90;;;;;;5063790;28;19929;-78
2023/08/24 00:52:00;;;;;;;;;;;15.30;99.90;;;;;;5064278;28;19940;-79
2023/08/24 00:54:25;;;;;;;;;;;15.30;99.90;;;;;;5028695;28;19932;-79
2023/08/24 00:56:51;;;;;;;;;;;15.30;99.90;;;;;;5004780;28;19986;-78
2023/08/24 00:59:17;;;;;;;;;;;15.20;99.90;;;;;;5051827;28;20387;-77
2023/08/24 01:01:44;;;;;;;;;;;15.20;99.90;;;;;;5034736;28;20579;-78
2023/08/24 01:04:10;;;;;;;;;;;15.20;99.90;;;;;;5051554;28;19941;-78
2023/08/24 01:06:36;;;;;;;;;;;15.30;99.90;;;;;;5018333;28;19933;-78
2023/08/24 01:09:02;;;;;;;;;;;15.30;99.90;;;;;;5049188;28;19926;-79
2023/08/24 01:11:34;;;;;;;;;;;15.40;99.90;;;;;;5032946;28;19925;-78
2023/08/24 01:14:16;;;;;;;;;;;15.40;99.90;;;;;;5064144;28;19933;-78
2023/08/24 01:16:45;;;;;;;;;;;15.40;99.90;;;;;;5048947;28;20064;-78
2023/08/24 01:19:18;;;;;;;;;;;15.50;99.90;;;;;;5024607;28;19929;-78
2023/08/24 01:21:44;;;;;;;;;;;15.50;99.90;;;;;;5032373;28;19929;-79
2023/08/24 01:24:26;;;;;;;;;;;15.50;99.90;;;;;;5032759;28;19933;-78
2023/08/24 01:26:53;;;;;;;;;;;15.50;99.90;;;;;;5069792;28;19925;-78
2023/08/24 01:29:20;;;;;;;;;;;15.60;99.90;;;;;;5017884;28;20359;-78
2023/08/24 01:31:49;;;;;;;;;;;15.60;99.90;;;;;;5066579;28;21432;-78
2023/08/24 01:34:14;;;;;;;;;;;15.60;99.90;;;;;;5048686;28;19936;-78
2023/08/24 01:36:40;;;;;;;;;;;15.60;99.90;;;;;;5068095;28;19929;-78
2023/08/24 01:39:11;;;;;;;;;;;15.60;99.90;;;;;;5037407;28;19925;-78
2023/08/24 01:41:42;;;;;;;;;;;15.70;99.90;;;;;;5057465;28;19925;-78
2023/08/24 01:44:09;;;;;;;;;;;15.70;99.90;;;;;;5053617;28;19929;-78
2023/08/24 01:46:36;;;;;;;;;;;15.80;99.90;;;;;;5038721;28;19932;-78
2023/08/24 01:49:03;;;;;;;;;;;15.80;99.90;;;;;;5023959;28;19925;-78
2023/08/24 01:51:29;;;;;;;;;;;15.80;99.90;;;;;;5038171;28;20015;-78
2023/08/24 01:53:54;;;;;;;;;;;15.80;99.90;;;;;;5055904;28;19929;-78
2023/08/24 01:56:20;;;;;;;;;;;15.80;99.90;;;;;;5038463;28;20001;-78
2023/08/24 01:58:46;;;;;;;;;;;15.80;99.90;;;;;;5071227;28;20041;-78
2023/08/24 02:01:12;;;;;;;;;;;15.80;99.90;;;;;;5038853;28;19929;-78
2023/08/24 02:03:39;;;;;;;;;;;15.80;99.90;;;;;;5023645;28;19933;-78
2023/08/24 02:06:06;;;;;;;;;;;15.90;99.90;;;;;;5040725;28;19933;-79
2023/08/24 02:08:32;;;;;;;;;;;15.90;99.90;;;;;;5038872;28;20019;-79
2023/08/24 02:10:58;;;;;;;;;;;15.90;99.90;;;;;;5055609;28;20069;-79
2023/08/24 02:13:23;;;;;;;;;;;15.90;99.90;;;;;;5023417;28;19961;-79
2023/08/24 02:15:49;;;;;;;;;;;16.00;99.90;;;;;;5037245;28;19940;-80
2023/08/24 02:18:14;;;;;;;;;;;16.00;99.90;;;;;;5050741;28;20552;-80
2023/08/24 02:20:40;;;;;;;;;;;16.00;99.90;;;;;;5068578;28;19936;-79
2023/08/24 02:23:06;;;;;;;;;;;16.00;99.90;;;;;;5035221;28;19983;-79
2023/08/24 02:25:31;;;;;;;;;;;16.00;99.90;;;;;;5022940;28;19940;-80
2023/08/24 02:27:57;;;;;;;;;;;16.00;99.90;;;;;;5064435;28;19935;-79
2023/08/24 02:30:22;;;;;;;;;;;16.00;99.90;;;;;;5019120;28;19932;-79
2023/08/24 02:32:48;;;;;;;;;;;16.00;99.90;;;;;;5035919;28;19932;-79
2023/08/24 02:35:14;;;;;;;;;;;16.00;99.90;;;;;;5052487;28;19947;-79
2023/08/24 02:37:39;;;;;;;;;;;16.00;99.90;;;;;;5019213;28;19930;-79
2023/08/24 02:40:05;;;;;;;;;;;16.10;99.90;;;;;;5019949;28;20368;-79
2023/08/24 02:42:32;;;;;;;;;;;16.10;99.90;;;;;;4996570;28;20403;-80
2023/08/24 02:44:58;;;;;;;;;;;16.10;99.90;;;;;;5043978;28;20008;-80
2023/08/24 02:47:23;;;;;;;;;;;16.00;99.90;;;;;;5025962;28;19933;-79
2023/08/24 02:49:49;;;;;;;;;;;16.00;99.90;;;;;;5049263;28;19929;-80
2023/08/24 02:52:14;;;;;;;;;;;16.00;99.90;;;;;;5019806;28;19925;-80
2023/08/24 02:54:40;;;;;;;;;;;16.00;99.90;;;;;;5005013;28;19983;-80
2023/08/24 02:57:05;;;;;;;;;;;16.00;99.90;;;;;;5008913;28;20081;-79
2023/08/24 02:59:31;;;;;;;;;;;16.10;99.90;;;;;;5049462;28;19925;-80
2023/08/24 03:01:58;;;;;;;;;;;16.10;99.90;;;;;;5069583;28;19925;-80
2023/08/24 03:04:23;;;;;;;;;;;16.10;99.90;;;;;;5034544;28;19936;-80
2023/08/24 03:06:49;;;;;;;;;;;16.10;99.90;;;;;;5006586;28;19932;-80
2023/08/24 03:09:14;;;;;;;;;;;16.00;99.90;;;;;;5048791;28;19991;-80
2023/08/24 03:11:40;;;;;;;;;;;16.00;99.90;;;;;;5034451;28;19933;-80
2023/08/24 03:14:06;;;;;;;;;;;16.00;99.90;;;;;;5016198;28;20023;-80
2023/08/24 03:16:31;;;;;;;;;;;16.00;99.90;;;;;;5022065;28;19962;-79
2023/08/24 03:18:57;;;;;;;;;;;15.90;99.90;;;;;;5021289;28;19972;-80
2023/08/24 03:21:22;;;;;;;;;;;15.90;99.90;;;;;;5033537;28;19929;-79
2023/08/24 03:23:48;;;;;;;;;;;15.90;99.90;;;;;;5065850;28;19929;-80
2023/08/24 03:26:13;;;;;;;;;;;15.80;99.90;;;;;;5016389;28;19925;-80
2023/08/24 03:28:39;;;;;;;;;;;15.80;99.90;;;;;;5020760;28;19972;-80
2023/08/24 03:31:06;;;;;;;;;;;15.80;99.90;;;;;;5063808;28;20416;-80
2023/08/24 03:33:33;;;;;;;;;;;15.80;99.90;;;;;;5021520;28;20012;-80
2023/08/24 03:35:58;;;;;;;;;;;15.70;99.90;;;;;;5019122;28;19925;-80
2023/08/24 03:38:24;;;;;;;;;;;15.70;99.90;;;;;;5020939;28;19928;-80
2023/08/24 03:40:49;;;;;;;;;;;15.70;99.90;;;;;;5049256;28;19925;-80
2023/08/24 03:43:15;;;;;;;;;;;15.60;99.90;;;;;;5036574;28;19925;-80
2023/08/24 03:45:41;;;;;;;;;;;15.60;99.90;;;;;;5033636;28;19939;-80
2023/08/24 03:48:07;;;;;;;;;;;15.60;99.90;;;;;;5011768;28;19925;-80
2023/08/24 03:50:33;;;;;;;;;;;15.60;99.90;;;;;;5053379;28;19996;-79
2023/08/24 03:52:58;;;;;;;;;;;15.50;99.90;;;;;;5034560;28;20080;-79
2023/08/24 03:55:24;;;;;;;;;;;15.50;99.90;;;;;;5034594;28;20000;-79
2023/08/24 03:57:50;;;;;;;;;;;15.40;99.90;;;;;;5019334;28;19925;-79
2023/08/24 04:00:16;;;;;;;;;;;15.40;99.90;;;;;;5019514;28;19932;-80
2023/08/24 04:02:42;;;;;;;;;;;15.30;99.90;;;;;;5002029;28;20016;-80
2023/08/24 04:05:08;;;;;;;;;;;15.30;99.90;;;;;;5019984;28;19980;-79
2023/08/24 04:07:36;;;;;;;;;;;15.30;99.90;;;;;;5036855;28;20323;-79
2023/08/24 04:10:05;;;;;;;;;;;15.20;99.90;;;;;;5031225;28;19940;-80
2023/08/24 04:12:31;;;;;;;;;;;15.20;99.90;;;;;;5063779;28;20341;-79
2023/08/24 04:14:57;;;;;;;;;;;15.20;99.90;;;;;;5017196;28;20372;-80
2023/08/24 04:17:23;;;;;;;;;;;15.20;99.90;;;;;;5033661;28;19934;-79
2023/08/24 04:19:48;;;;;;;;;;;15.20;99.90;;;;;;5050418;28;19932;-80
2023/08/24 04:22:14;;;;;;;;;;;15.20;99.90;;;;;;5001071;28;20304;-80
2023/08/24 04:24:40;;;;;;;;;;;15.20;99.90;;;;;;5000207;28;19948;-80
2023/08/24 04:27:06;;;;;;;;;;;15.20;99.90;;;;;;5038210;28;19929;-80
2023/08/24 04:29:32;;;;;;;;;;;15.20;99.90;;;;;;5034155;28;20003;-80
2023/08/24 04:31:57;;;;;;;;;;;15.20;99.90;;;;;;5017835;28;19952;-80
2023/08/24 04:34:23;;;;;;;;;;;15.10;99.90;;;;;;5017392;28;19936;-80
2023/08/24 04:36:48;;;;;;;;;;;15.10;99.90;;;;;;5067188;28;19952;-80
2023/08/24 04:39:14;;;;;;;;;;;15.10;99.90;;;;;;5033460;28;19957;-80
2023/08/24 04:41:40;;;;;;;;;;;15.10;99.90;;;;;;5031347;28;19929;-80
2023/08/24 04:44:07;;;;;;;;;;;15.00;99.90;;;;;;5048535;28;19925;-80
2023/08/24 04:46:33;;;;;;;;;;;15.00;99.90;;;;;;5004555;28;20407;-80
2023/08/24 04:48:59;;;;;;;;;;;15.00;99.90;;;;;;5007183;28;19964;-79
2023/08/24 04:51:27;;;;;;;;;;;14.90;99.90;;;;;;5052904;28;20059;-80
2023/08/24 04:53:53;;;;;;;;;;;14.90;99.90;;;;;;5064889;28;20299;-80
2023/08/24 04:56:19;;;;;;;;;;;14.90;99.90;;;;;;5018266;28;20561;-79
2023/08/24 04:58:56;;;;;;;;;;;15.00;99.90;;;;;;5015905;28;19937;-79
2023/08/24 05:01:22;;;;;;;;;;;15.00;99.90;;;;;;5022525;28;19933;-80
2023/08/24 05:03:48;;;;;;;;;;;15.10;99.90;;;;;;5034279;28;20006;-80
2023/08/24 05:06:13;;;;;;;;;;;15.00;99.90;;;;;;5010614;28;19925;-80
2023/08/24 05:08:39;;;;;;;;;;;15.10;99.90;;;;;;5053976;28;19925;-80
2023/08/24 05:11:16;;;;;;;;;;;15.10;99.90;;;;;;5020435;28;19925;-80
2023/08/24 05:13:42;;;;;;;;;;;15.20;99.90;;;;;;5041165;28;19925;-80
2023/08/24 05:16:08;;;;;;;;;;;15.40;99.90;;;;;;5043096;28;19931;-80
2023/08/24 05:18:36;;;;;;;;;;;15.50;99.90;;;;;;5041860;28;19925;-80
2023/08/24 05:21:04;;;;;;;;;;;15.50;99.90;;;;;;5026959;28;19929;-80
2023/08/24 05:23:31;;;;;;;;;;;15.60;99.90;;;;;;5057759;28;20430;-80
2023/08/24 05:26:00;;;;;;;;;;;15.70;99.90;;;;;;5029064;28;19925;-80
2023/08/24 05:28:26;;;;;;;;;;;15.70;99.90;;;;;;5041780;28;19932;-80
2023/08/24 05:30:52;;;;;;;;;;;15.70;99.90;;;;;;5072607;28;19926;-80
2023/08/24 05:33:17;;;;;;;;;;;15.70;99.90;;;;;;5074705;28;20008;-80
2023/08/24 05:35:43;;;;;;;;;;;15.70;99.90;;;;;;5057960;28;19936;-79
2023/08/24 05:38:09;;;;;;;;;;;15.80;99.90;;;;;;5039099;28;20305;-80
2023/08/24 05:40:35;;;;;;;;;;;15.80;99.90;;;;;;5006685;28;20540;-80
2023/08/24 05:43:00;;;;;;;;;;;15.80;99.90;;;;;;5004184;28;20474;-80
2023/08/24 05:45:26;;;;;;;;;;;15.90;99.90;;;;;;5053790;28;19932;-80
2023/08/24 05:47:51;;;;;;;;;;;15.90;99.90;;;;;;5024144;28;19948;-80
2023/08/24 05:50:17;;;;;;;;;;;16.00;99.90;;;;;;5042463;28;19932;-80
2023/08/24 05:52:43;;;;;;;;;;;16.10;99.90;;;;;;5021205;28;19933;-80
2023/08/24 05:55:08;;;;;;;;;;;16.10;99.90;;;;;;5040258;28;20045;-80
2023/08/24 05:57:34;;;;;;;;;;;16.30;99.90;;;;;;5057111;28;19933;-80
2023/08/24 05:59:59;;;;;;;;;;;16.40;99.90;;;;;;5053353;28;19968;-80
2023/08/24 06:02:25;;;;;;;;;;;16.60;99.90;;;;;;5053888;28;20466;-80
2023/08/24 06:04:50;;;;;;;;;;;16.70;99.90;;;;;;5036059;28;19933;-80
2023/08/24 06:07:16;;;;;;;;;;;16.80;99.90;;;;;;5048947;28;19933;-80
2023/08/24 06:09:42;;;;;;;;;;;16.90;99.90;;;;;;5004399;28;19980;-80
2023/08/24 06:12:08;;;;;;;;;;;17.10;99.90;;;;;;5019531;28;19925;-80
2023/08/24 06:14:33;;;;;;;;;;;17.20;99.90;;;;;;5001912;28;19925;-80
2023/08/24 06:16:59;;;;;;;;;;;17.40;99.90;;;;;;5052610;28;19964;-79
2023/08/24 06:19:25;;;;;;;;;;;17.50;99.90;;;;;;5068902;28;19932;-79
2023/08/24 06:21:50;;;;;;;;;;;17.50;99.90;;;;;;5049401;28;20278;-80
2023/08/24 06:24:16;;;;;;;;;;;17.40;99.90;;;;;;5016669;28;20007;-80
2023/08/24 06:26:41;;;;;;;;;;;17.40;99.90;;;;;;5034946;28;20909;-80
2023/08/24 06:29:07;;;;;;;;;;;17.40;99.90;;;;;;5022623;28;19975;-80
2023/08/24 06:31:33;;;;;;;;;;;17.40;99.90;;;;;;5038270;28;19925;-80
2023/08/24 06:33:58;;;;;;;;;;;17.50;99.90;;;;;;5036604;28;19963;-80
2023/08/24 06:36:24;;;;;;;;;;;17.50;99.90;;;;;;5038044;28;19959;-80
2023/08/24 06:38:50;;;;;;;;;;;17.50;99.90;;;;;;5020298;28;19960;-80
2023/08/24 06:41:15;;;;;;;;;;;17.60;99.90;;;;;;5040173;28;19944;-80
2023/08/24 06:43:41;;;;;;;;;;;17.60;99.90;;;;;;5001556;28;20300;-80
2023/08/24 06:46:07;;;;;;;;;;;17.70;99.90;;;;;;5065746;28;19991;-80
2023/08/24 06:48:34;;;;;;;;;;;17.90;99.90;;;;;;5049792;28;19929;-79
2023/08/24 06:50:59;;;;;;;;;;;18.30;99.90;;;;;;5045315;28;19925;-78
2023/08/24 06:53:25;;;;;;;;;;;18.50;99.90;;;;;;5036256;28;19924;-79
2023/08/24 06:55:57;;;;;;;;;;;18.80;99.90;;;;;;5022479;28;20038;-80
2023/08/24 06:58:22;;;;;;;;;;;19.10;99.90;;;;;;5048346;28;19925;-79
2023/08/24 07:00:50;;;;;;;;;;;19.60;99.90;;;;;;5036175;28;20341;-80
2023/08/24 07:03:17;;;;;;;;;;;19.80;99.90;;;;;;5003770;28;19971;-80
2023/08/24 07:05:42;;;;;;;;;;;19.80;99.90;;;;;;5010832;28;19928;-79
2023/08/24 07:08:08;;;;;;;;;;;19.80;99.90;;;;;;5034508;28;19925;-79
2023/08/24 07:10:34;;;;;;;;;;;19.70;99.90;;;;;;5038958;28;19925;-79
2023/08/24 07:12:59;;;;;;;;;;;19.70;99.90;;;;;;5037598;28;20177;-79
2023/08/24 07:15:25;;;;;;;;;;;19.90;99.90;;;;;;5002321;28;20895;-79
2023/08/24 07:17:50;;;;;;;;;;;20.30;99.90;;;;;;5019610;28;19944;-79
2023/08/24 07:20:16;;;;;;;;;;;20.80;99.90;;;;;;5007129;28;19925;-77
2023/08/24 07:22:42;;;;;;;;;;;21.40;99.90;;;;;;5005985;28;20002;-78
2023/08/24 07:25:08;;;;;;;;;;;22.10;99.90;;;;;;5006412;28;19964;-79
2023/08/24 07:27:34;;;;;;;;;;;22.70;99.90;;;;;;5036826;28;19925;-78
2023/08/24 07:30:00;;;;;;;;;;;23.20;99.90;;;;;;5065912;28;19928;-79
2023/08/24 07:32:26;;;;;;;;;;;23.60;99.90;;;;;;5067638;28;20039;-78
2023/08/24 07:34:51;;;;;;;;;;;24.10;99.90;;;;;;5033948;28;19933;-78
2023/08/24 07:37:17;;;;;;;;;;;24.50;99.90;;;;;;5037149;28;19929;-78
2023/08/24 07:39:43;;;;;;;;;;;24.70;99.90;;;;;;5043078;28;19926;-78
2023/08/24 07:42:08;;;;;;;;;;;25.00;99.90;;;;;;5055488;28;19932;-78
2023/08/24 07:44:34;;;;;;;;;;;25.30;99.90;;;;;;5037638;28;19926;-78
2023/08/24 07:46:59;;;;;;;;;;;25.50;99.90;;;;;;5054178;28;19929;-78
2023/08/24 07:49:25;;;;;;;;;;;25.80;99.90;;;;;;5038778;28;19925;-78
2023/08/24 07:51:50;;;;;;;;;;;26.00;99.90;;;;;;5019085;28;19929;-78
2023/08/24 07:54:16;;;;;;;;;;;26.10;99.90;;;;;;5018259;28;19933;-79
2023/08/24 07:56:42;;;;;;;;;;;26.30;99.90;;;;;;5018769;28;20020;-86
2023/08/24 07:59:08;;;;;;;;;;;26.40;99.90;;;;;;5017192;28;19929;-83
2023/08/24 08:01:33;;;;;;;;;;;26.70;99.90;;;;;;5051526;28;20075;-86
2023/08/24 08:04:00;;;;;;;;;;;26.80;99.90;;;;;;5019088;28;19931;-86
2023/08/24 08:06:26;;;;;;;;;;;26.90;99.90;;;;;;5015969;28;19981;-86
2023/08/24 08:08:52;;;;;;;;;;;27.00;99.90;;;;;;5019904;28;19981;-86
2023/08/24 08:11:18;;;;;;;;;;;27.20;99.90;;;;;;5001856;28;19925;-86
2023/08/24 08:13:43;;;;;;;;;;;27.40;99.90;;;;;;5049579;28;19928;-85
2023/08/24 08:16:09;;;;;;;;;;;27.50;99.90;;;;;;5023750;28;20410;-87
2023/08/24 08:18:35;;;;;;;;;;;27.70;99.90;;;;;;5017759;28;19933;-87
2023/08/24 08:21:03;;;;;;;;;;;28.00;99.90;;;;;;5028145;28;20007;-87
2023/08/24 08:23:29;;;;;;;;;;;28.00;99.90;;;;;;5030896;28;19925;-86
2023/08/24 08:25:54;;;;;;;;;;;28.10;99.90;;;;;;5019660;28;19925;-86
2023/08/24 08:28:20;;;;;;;;;;;28.20;99.90;;;;;;5016320;28;20020;-87
2023/08/24 08:30:47;;;;;;;;;;;28.20;99.90;;;;;;5051486;28;19932;-86
2023/08/24 08:33:13;;;;;;;;;;;28.00;99.90;;;;;;5050931;28;20402;-86
2023/08/24 08:35:39;;;;;;;;;;;28.00;99.90;;;;;;5020176;28;19982;-86
2023/08/24 08:38:05;;;;;;;;;;;28.10;99.90;;;;;;5026308;28;19933;-87
2023/08/24 08:40:31;;;;;;;;;;;28.20;99.90;;;;;;5018320;28;20734;-86
2023/08/24 08:42:57;;;;;;;;;;;28.40;99.90;;;;;;5015821;28;19972;-86
2023/08/24 08:45:27;;;;;;;;;;;28.40;99.90;;;;;;5034484;28;19984;-86
2023/08/24 08:47:56;;;;;;;;;;;28.30;99.90;;;;;;5045436;28;19929;-87
2023/08/24 08:50:22;;;;;;;;;;;28.30;99.90;;;;;;5016570;28;19925;-87
2023/08/24 08:52:47;;;;;;;;;;;28.40;99.90;;;;;;5000836;28;19936;-87
2023/08/24 08:55:15;;;;;;;;;;;28.30;99.90;;;;;;4999694;28;20067;-87
2023/08/24 08:57:42;;;;;;;;;;;28.20;99.90;;;;;;5019559;28;19936;-86
2023/08/24 09:00:13;;;;;;;;;;;28.10;99.90;;;;;;5057014;28;20010;-86
2023/08/24 09:02:39;;;;;;;;;;;27.90;99.90;;;;;;5049419;28;19936;-86
2023/08/24 09:05:04;;;;;;;;;;;27.60;99.90;;;;;;5019798;28;19956;-84
2023/08/24 09:07:30;;;;;;;;;;;27.40;99.90;;;;;;5014101;28;19939;-85
2023/08/24 09:09:56;;;;;;;;;;;27.30;99.90;;;;;;5017073;28;19929;-85
2023/08/24 09:12:21;;;;;;;;;;;27.20;99.90;;;;;;5020403;28;20450;-85
2023/08/24 09:14:47;;;;;;;;;;;27.10;99.90;;;;;;5033324;28;19936;-86
2023/08/24 09:17:20;;;;;;;;;;;27.20;99.90;;;;;;5032690;28;19926;-87
2023/08/24 09:19:46;;;;;;;;;;;27.10;99.90;;;;;;5035261;28;20403;-87
2023/08/24 09:22:11;;;;;;;;;;;27.20;99.90;;;;;;5020333;28;20064;-87
2023/08/24 09:24:37;;;;;;;;;;;27.40;99.90;;;;;;5032389;28;19940;-87
2023/08/24 09:27:16;;;;;;;;;;;27.50;99.90;;;;;;5013322;28;19929;-86
2023/08/24 09:29:42;;;;;;;;;;;27.70;99.90;;;;;;4997356;28;20032;-86
2023/08/24 09:32:08;;;;;;;;;;;27.80;99.90;;;;;;5048980;28;19976;-87
2023/08/24 09:34:36;;;;;;;;;;;27.60;99.90;;;;;;5017508;28;19944;-86
2023/08/24 09:37:04;;;;;;;;;;;27.30;99.90;;;;;;5024705;28;19929;-87
2023/08/24 09:39:29;;;;;;;;;;;27.10;99.90;;;;;;5033619;28;19944;-86
2023/08/24 09:41:59;;;;;;;;;;;26.80;99.90;;;;;;5017447;28;19929;-87
2023/08/24 09:44:26;;;;;;;;;;;26.50;99.90;;;;;;5059123;28;19965;-87
2023/08/24 09:46:52;;;;;;;;;;;26.20;99.90;;;;;;5052340;28;19981;-87
2023/08/24 09:49:18;;;;;;;;;;;26.00;99.90;;;;;;5019117;28;19940;-88
2023/08/24 09:51:44;;;;;;;;;;;25.70;99.90;;;;;;5008498;28;19933;-87
2023/08/24 09:54:10;;;;;;;;;;;25.50;99.90;;;;;;5043650;28;19936;-87
2023/08/24 09:56:37;;;;;;;;;;;25.30;99.90;;;;;;5063453;28;19932;-87
2023/08/24 09:59:13;;;;;;;;;;;25.10;99.90;;;;;;5066172;28;19933;-87
2023/08/24 10:01:43;;;;;;;;;;;25.00;99.90;;;;;;5026937;28;19932;-87
2023/08/24 10:04:10;;;;;;;;;;;24.80;99.90;;;;;;5023247;28;19983;-87
2023/08/24 10:06:36;;;;;;;;;;;24.70;99.90;;;;;;5023698;28;19933;-87
2023/08/24 10:09:04;;;;;;;;;;;24.60;99.90;;;;;;5013109;28;19948;-87
2023/08/24 10:11:30;;;;;;;;;;;24.50;99.90;;;;;;5022027;28;19987;-87
2023/08/24 10:14:00;;;;;;;;;;;24.40;99.90;;;;;;5023470;28;19956;-87
2023/08/24 10:16:27;;;;;;;;;;;24.30;99.90;;;;;;5023100;28;20525;-87
2023/08/24 10:18:53;;;;;;;;;;;24.30;99.90;;;;;;5022602;28;19925;-87
2023/08/24 10:21:19;;;;;;;;;;;24.20;99.90;;;;;;4994519;28;20017;-87
2023/08/24 10:23:45;;;;;;;;;;;24.10;99.90;;;;;;5029314;28;19931;-87
2023/08/24 10:26:12;;;;;;;;;;;24.00;99.90;;;;;;5049724;28;19928;-88
2023/08/24 10:28:38;;;;;;;;;;;24.00;99.90;;;;;;5021474;28;19943;-86
2023/08/24 10:31:04;;;;;;;;;;;24.00;99.90;;;;;;5034889;28;20024;-87
2023/08/24 10:33:30;;;;;;;;;;;23.90;99.90;;;;;;5037602;28;19925;-85
2023/08/24 10:35:56;;;;;;;;;;;23.80;99.90;;;;;;5026442;28;20411;-86
2023/08/24 10:38:26;;;;;;;;;;;23.90;99.90;;;;;;5003814;28;19925;-86
2023/08/24 10:40:51;;;;;;;;;;;23.80;99.90;;;;;;5032026;28;19929;-87
2023/08/24 10:43:17;;;;;;;;;;;23.80;99.90;;;;;;5020791;28;19932;-86
2023/08/24 10:45:58;;;;;;;;;;;23.70;99.90;;;;;;5034970;28;19979;-86
2023/08/24 10:48:24;;;;;;;;;;;23.70;99.90;;;;;;5064525;28;19925;-87
2023/08/24 10:51:30;;;;;;;;;;;23.70;99.90;;;;;;5007369;28;19948;-87
2023/08/24 10:53:56;;;;;;;;;;;23.70;99.90;;;;;;4994256;28;19953;-88
2023/08/24 10:56:29;;;;;;;;;;;23.70;99.90;;;;;;4989572;28;19930;-86
2023/08/24 10:59:16;;;;;;;;;;;23.70;99.90;;;;;;4990897;28;19970;-86
2023/08/24 11:01:42;;;;;;;;;;;23.80;99.90;;;;;;5018528;28;19936;-87
2023/08/24 11:04:08;;;;;;;;;;;23.80;99.90;;;;;;5017598;28;19925;-86
2023/08/24 11:06:34;;;;;;;;;;;24.00;99.90;;;;;;5012220;28;20103;-85
2023/08/24 11:09:09;;;;;;;;;;;24.10;99.90;;;;;;5029160;28;20019;-85
2023/08/24 11:11:34;;;;;;;;;;;24.20;99.90;;;;;;5019298;28;19933;-86
2023/08/24 11:14:13;;;;;;;;;;;24.40;99.90;;;;;;5033488;28;19932;-86
2023/08/24 11:16:39;;;;;;;;;;;24.50;99.90;;;;;;5064073;28;19936;-86
2023/08/24 11:19:06;;;;;;;;;;;24.50;99.90;;;;;;5019650;28;19932;-87
2023/08/24 11:21:32;;;;;;;;;;;24.50;99.90;;;;;;5017155;28;19929;-87
2023/08/24 11:23:59;;;;;;;;;;;24.50;99.90;;;;;;5017420;28;19929;-87
2023/08/24 11:26:25;;;;;;;;;;;24.40;99.90;;;;;;5032714;28;20020;-87
2023/08/24 11:28:54;;;;;;;;;;;24.40;99.90;;;;;;5001856;28;19932;-87
2023/08/24 11:31:20;;;;;;;;;;;24.50;99.90;;;;;;5001792;28;19952;-86
2023/08/24 11:33:46;;;;;;;;;;;24.50;99.90;;;;;;5032864;28;19925;-87
2023/08/24 11:36:12;;;;;;;;;;;24.60;99.90;;;;;;4998216;28;19971;-81
2023/08/24 11:38:42;;;;;;;;;;;24.60;99.90;;;;;;4995534;28;19945;-88
2023/08/24 11:41:14;;;;;;;;;;;24.70;99.90;;;;;;5017919;28;19973;-88
2023/08/24 11:43:40;;;;;;;;;;;24.80;99.90;;;;;;5031782;28;19937;-88
2023/08/24 11:46:06;;;;;;;;;;;24.90;99.90;;;;;;5021702;28;19965;-87
2023/08/24 11:48:32;;;;;;;;;;;25.00;99.90;;;;;;5054301;28;19932;-88
2023/08/24 11:50:57;;;;;;;;;;;25.00;99.90;;;;;;5036189;28;19932;-87
2023/08/24 11:53:24;;;;;;;;;;;25.00;99.90;;;;;;5057170;28;20413;-88
2023/08/24 11:55:52;;;;;;;;;;;25.00;99.90;;;;;;5053207;28;19929;-88
2023/08/24 11:58:18;;;;;;;;;;;24.90;99.90;;;;;;5017796;28;19926;-88
2023/08/24 12:00:44;;;;;;;;;;;24.80;99.90;;;;;;5050553;28;19936;-88
2023/08/24 12:03:10;;;;;;;;;;;24.70;99.90;;;;;;5037714;28;19932;-88
2023/08/24 12:05:35;;;;;;;;;;;24.60;99.90;;;;;;5054775;28;19964;-88
2023/08/24 12:08:01;;;;;;;;;;;24.60;99.90;;;;;;5037479;28;19929;-88
2023/08/24 12:10:27;;;;;;;;;;;24.70;99.90;;;;;;5034753;28;19929;-88
2023/08/24 12:13:05;;;;;;;;;;;24.60;99.90;;;;;;5018739;28;19995;-88
2023/08/24 12:15:34;;;;;;;;;;;24.70;99.90;;;;;;5019163;28;20029;-88
2023/08/24 12:18:06;;;;;;;;;;;24.70;99.90;;;;;;5019223;28;19933;-88
2023/08/24 12:20:32;;;;;;;;;;;24.90;99.90;;;;;;5049790;28;19945;-88
2023/08/24 12:22:58;;;;;;;;;;;25.00;99.90;;;;;;5037679;28;19928;-88
2023/08/24 12:25:24;;;;;;;;;;;25.10;99.90;;;;;;5017467;28;19980;-88
2023/08/24 12:28:08;;;;;;;;;;;25.10;99.90;;;;;;5019688;28;19990;-88
2023/08/24 12:30:43;;;;;;;;;;;25.20;99.90;;;;;;5035469;28;19925;-88
2023/08/24 12:33:08;;;;;;;;;;;25.30;99.90;;;;;;5053394;28;19951;-87
2023/08/24 12:35:34;;;;;;;;;;;25.40;99.90;;;;;;5053436;28;19929;-88
2023/08/24 12:37:59;;;;;;;;;;;25.40;99.90;;;;;;5000766;28;19935;-86
2023/08/24 12:40:25;;;;;;;;;;;25.50;99.90;;;;;;5008568;28;19990;-88
2023/08/24 12:42:51;;;;;;;;;;;25.60;99.90;;;;;;5022862;28;19936;-88
2023/08/24 12:45:16;;;;;;;;;;;25.60;99.90;;;;;;5036237;28;20281;-88
2023/08/24 12:47:42;;;;;;;;;;;25.60;99.90;;;;;;5052438;28;20288;-89
2023/08/24 12:50:08;;;;;;;;;;;25.60;99.90;;;;;;5036417;28;20292;-88
2023/08/24 12:52:33;;;;;;;;;;;25.60;99.90;;;;;;5019563;28;19929;-88
2023/08/24 12:54:59;;;;;;;;;;;25.60;99.90;;;;;;5020493;28;19928;-89
2023/08/24 12:57:25;;;;;;;;;;;25.60;99.90;;;;;;5000225;28;19925;-88
2023/08/24 12:59:51;;;;;;;;;;;25.50;99.90;;;;;;5003245;28;19933;-88
2023/08/24 13:02:17;;;;;;;;;;;25.50;99.90;;;;;;5006481;28;19948;-88
2023/08/24 13:04:43;;;;;;;;;;;25.50;99.90;;;;;;5001682;28;20439;-89
2023/08/24 13:07:09;;;;;;;;;;;25.50;99.90;;;;;;5001362;28;19929;-83
2023/08/24 13:09:35;;;;;;;;;;;25.70;99.90;;;;;;5050321;28;19959;-80
2023/08/24 13:12:00;;;;;;;;;;;25.80;99.90;;;;;;5000193;28;19946;-78
2023/08/24 13:14:26;;;;;;;;;;;25.90;99.90;;;;;;5036683;28;19925;-78
2023/08/24 13:16:51;;;;;;;;;;;26.00;99.90;;;;;;5037735;28;19933;-78
2023/08/24 13:19:17;;;;;;;;;;;26.10;99.90;;;;;;5037138;28;20343;-78
2023/08/24 13:21:42;;;;;;;;;;;26.10;99.90;;;;;;5019953;28;19925;-78
2023/08/24 13:24:08;;;;;;;;;;;26.20;99.90;;;;;;5020910;28;19929;-78
2023/08/24 13:26:33;;;;;;;;;;;26.20;99.90;;;;;;5021221;28;19952;-78
2023/08/24 13:29:01;;;;;;;;;;;26.10;99.90;;;;;;5037769;28;20420;-78
2023/08/24 13:31:26;;;;;;;;;;;26.20;99.90;;;;;;5037775;28;19932;-78
2023/08/24 13:33:52;;;;;;;;;;;26.30;99.90;;;;;;5055173;28;19977;-78
2023/08/24 13:36:17;;;;;;;;;;;26.40;99.90;;;;;;5042840;28;19925;-78
2023/08/24 13:38:43;;;;;;;;;;;26.40;99.90;;;;;;5057462;28;20435;-77
2023/08/24 13:41:09;;;;;;;;;;;26.50;99.90;;;;;;5058665;28;19936;-78
2023/08/24 13:43:34;;;;;;;;;;;26.50;99.90;;;;;;5038869;28;19933;-78
2023/08/24 13:46:00;;;;;;;;;;;26.50;99.90;;;;;;5024344;28;19929;-78
2023/08/24 13:48:26;;;;;;;;;;;26.40;99.90;;;;;;5007418;28;19929;-78
2023/08/24 13:50:52;;;;;;;;;;;26.30;99.90;;;;;;5040128;28;19925;-78
2023/08/24 13:53:18;;;;;;;;;;;26.20;99.90;;;;;;5023945;28;19992;-78
2023/08/24 13:55:44;;;;;;;;;;;26.00;99.90;;;;;;5006452;28;19975;-78
2023/08/24 13:58:09;;;;;;;;;;;25.80;99.90;;;;;;5057645;28;19972;-78
2023/08/24 14:00:35;;;;;;;;;;;25.70;99.90;;;;;;5040709;28;20412;-78
2023/08/24 14:03:01;;;;;;;;;;;25.50;99.90;;;;;;5041106;28;19936;-78
2023/08/24 14:05:26;;;;;;;;;;;25.40;99.90;;;;;;5055130;28;19929;-77
2023/08/24 14:07:52;;;;;;;;;;;25.20;99.90;;;;;;5004380;28;19925;-76
2023/08/24 14:10:18;;;;;;;;;;;25.10;99.90;;;;;;5057805;28;19967;-81
2023/08/24 14:12:43;;;;;;;;;;;25.00;99.90;;;;;;5010595;28;20004;-87